Terminal Aerodrome Forecast
Issued by NWS

Home | Current Version | Previous Version | Text Only | Print | Product List | Glossary On
Versions: 1 2 3 4 5 6 7 8 9 10 11 12 13 14 15 16 17
628
FTUS43 KIND 291121
TAFBMG
TAF
KBMG 291121Z 2912/3012 08005KT 1 1/2SM SHRA VCTS OVC003CB
     FM291500 11006KT 3SM SHRA VCTS OVC015CB
     FM291800 15009KT P6SM VCTS BKN030CB
     FM292100 15010KT P6SM VCSH BKN090
     FM300000 15007KT P6SM VCTS BKN200CB
      AMD LTD TO CLD VIS AND WIND TIL 291300=

USA.gov is the U.S. government's official web portal to all federal, state and local government web resources and services.